Time;durP1;ratioP1;P1;durP2;ratioP2;P2;SDS_P1;SDS_P2;PMS_P1;PMS_P2;Temp;Humidity;BMP_temperature;BMP_pressure;BME280_temperature;BME280_humidity;BME280_pressure;Samples;Min_cycle;Max_cycle;Signal;HPM_P1;HPM_P2
2022/08/13 00:01:21;;;;;;;18.90;12.88;;;;;;;18.41;67.06;100949.49;1697880;82;21015;-73
2022/08/13 00:03:47;;;;;;;16.48;12.98;;;;;;;18.38;67.17;100949.39;1686954;82;21491;-73
2022/08/13 00:06:14;;;;;;;17.82;13.70;;;;;;;18.36;67.25;100947.44;1685733;82;21545;-74
2022/08/13 00:08:41;;;;;;;17.32;12.75;;;;;;;18.33;67.32;100954.57;1706196;82;21019;-74
2022/08/13 00:11:07;;;;;;;18.10;10.48;;;;;;;18.31;67.44;100952.61;1710467;82;21194;-74
2022/08/13 00:13:34;;;;;;;22.13;10.90;;;;;;;18.29;67.53;100947.95;1734542;81;21073;-73
2022/08/13 00:16:01;;;;;;;20.95;12.10;;;;;;;18.22;67.64;100948.46;1715772;82;21062;-73
2022/08/13 00:18:29;;;;;;;121.90;18.57;;;;;;;18.23;67.73;100953.31;1709256;82;21023;-73
2022/08/13 00:20:57;;;;;;;45.23;13.38;;;;;;;18.19;67.80;100950.20;1703962;81;21011;-73
2022/08/13 00:23:26;;;;;;;12.55;10.78;;;;;;;18.15;67.92;100948.97;1712842;80;21204;-74
2022/08/13 00:25:55;;;;;;;15.43;11.35;;;;;;;18.13;68.01;100945.63;1722532;81;21047;-74
2022/08/13 00:28:25;;;;;;;58.02;13.15;;;;;;;18.12;68.11;100946.66;1717894;82;21070;-73
2022/08/13 00:30:52;;;;;;;24.35;12.82;;;;;;;18.06;68.15;100944.78;1724553;81;21035;-74
2022/08/13 00:33:20;;;;;;;27.45;15.50;;;;;;;18.02;68.31;100940.83;1710293;80;21114;-74
2022/08/13 00:35:48;;;;;;;22.22;15.23;;;;;;;18.00;68.41;100944.78;1739223;82;21455;-74
2022/08/13 00:38:18;;;;;;;24.75;17.10;;;;;;;17.94;68.49;100949.95;1730374;82;21149;-74
2022/08/13 00:40:45;;;;;;;;;;;;;;;17.86;68.62;100958.77;1712400;81;21007;-73
2022/08/13 00:43:11;;;;;;;22.17;13.13;;;;;;;17.81;68.75;100953.97;1707892;81;20169;-73
2022/08/13 00:45:37;;;;;;;14.30;11.65;;;;;;;17.81;68.84;100950.44;1714562;82;21018;-74
2022/08/13 00:50:50;;;;;;;25.37;15.38;;;;;;;17.88;69.01;100943.19;1696422;82;21081;-73
2022/08/13 00:53:18;;;;;;;22.15;14.63;;;;;;;17.93;69.06;100943.42;1700719;83;21059;-74
2022/08/13 00:55:48;;;;;;;17.52;12.98;;;;;;;17.99;69.12;100942.59;1701473;82;21050;-73
2022/08/13 00:58:19;;;;;;;18.12;14.63;;;;;;;18.06;69.17;100944.78;1707219;82;21054;-74
2022/08/13 01:00:50;;;;;;;17.32;13.25;;;;;;;18.12;69.18;100941.26;1697733;82;21238;-75
2022/08/13 01:03:17;;;;;;;18.27;13.55;;;;;;;18.17;69.22;100933.39;1722165;82;20956;-74
2022/08/13 01:05:44;;;;;;;17.52;13.03;;;;;;;18.23;69.23;100932.55;1709403;81;21483;-73
2022/08/13 01:08:10;;;;;;;17.70;12.80;;;;;;;18.26;69.27;100938.88;1700913;81;21512;-74
2022/08/13 01:10:40;;;;;;;15.88;11.65;;;;;;;18.29;69.29;100938.50;1713580;82;21066;-73
2022/08/13 01:13:09;;;;;;;;;;;;;;;18.32;69.33;100940.78;1718383;82;21042;-74
2022/08/13 01:15:34;;;;;;;16.30;11.75;;;;;;;18.35;69.34;100941.71;1728011;82;20119;-74
2022/08/13 01:18:00;;;;;;;14.58;11.68;;;;;;;18.37;69.35;100939.63;1700203;83;21014;-74
2022/08/13 01:20:27;;;;;;;15.75;12.82;;;;;;;18.39;69.33;100948.37;1683924;82;21011;-74
2022/08/13 01:22:55;;;;;;;15.43;13.15;;;;;;;18.41;69.33;100940.88;1703463;82;21162;-74
2022/08/13 01:25:24;;;;;;;14.90;13.25;;;;;;;18.44;69.33;100935.05;1709213;82;21911;-74
2022/08/13 01:27:50;;;;;;;17.52;14.28;;;;;;;18.48;69.34;100926.84;1718834;82;21010;-74
2022/08/13 01:30:17;;;;;;;20.15;18.07;;;;;;;18.54;69.35;100922.53;1712013;82;21008;-74
2022/08/13 01:32:44;;;;;;;25.77;20.43;;;;;;;18.60;69.36;100912.75;1703579;82;21026;-74
2022/08/13 01:35:10;;;;;;;27.58;21.80;;;;;;;18.63;69.38;100909.10;1715307;81;21023;-73
2022/08/13 01:37:37;;;;;;;20.35;16.57;;;;;;;18.67;69.37;100908.16;1719302;82;21158;-74
2022/08/13 01:40:05;;;;;;;19.32;17.32;;;;;;;18.72;69.38;100908.34;1717908;82;21026;-74
2022/08/13 01:42:44;;;;;;;18.35;16.07;;;;;;;18.74;69.37;100900.36;1711628;82;21062;-73
2022/08/13 01:45:11;;;;;;;18.77;12.57;;;;;;;18.76;69.40;100906.38;1719541;82;21535;-74
2022/08/13 01:50:31;;;;;;;17.07;11.73;;;;;;;18.78;69.35;100927.80;1699249;82;21125;-74
2022/08/13 01:53:09;;;;;;;14.33;12.05;;;;;;;18.75;69.37;100932.27;1719094;82;21503;-74
2022/08/13 01:55:42;;;;;;;14.85;12.47;;;;;;;18.71;69.38;100937.78;1716018;82;21074;-74
2022/08/13 01:58:12;;;;;;;17.20;12.18;;;;;;;18.69;69.43;100932.58;1683358;83;21053;-74
2022/08/13 02:00:41;;;;;;;18.27;12.85;;;;;;;18.71;69.46;100928.33;1710979;81;21503;-74
2022/08/13 02:03:09;;;;;;;16.12;12.10;;;;;;;18.74;69.47;100927.91;1691231;82;21369;-74
2022/08/13 02:05:38;;;;;;;14.00;11.68;;;;;;;18.75;69.47;100934.43;1723078;82;21062;-74
2022/08/13 02:08:03;;;;;;;16.27;12.58;;;;;;;18.74;69.50;100930.09;1715735;82;21512;-74
2022/08/13 02:10:29;;;;;;;13.65;12.03;;;;;;;18.77;69.56;100931.53;1702878;82;21014;-74
2022/08/13 02:12:55;;;;;;;16.60;12.03;;;;;;;18.77;69.54;100928.83;1685728;82;21010;-74
2022/08/13 02:15:21;;;;;;;14.95;12.78;;;;;;;18.80;69.56;100920.30;1706537;82;21103;-74
2022/08/13 02:17:47;;;;;;;17.35;14.25;;;;;;;18.82;69.58;100921.73;1690150;82;21048;-74
2022/08/13 02:20:17;;;;;;;18.92;13.50;;;;;;;18.85;69.56;100912.40;1695691;82;21047;-74
2022/08/13 02:22:45;;;;;;;17.70;11.83;;;;;;;18.89;69.60;100914.45;1701461;82;21054;-75
2022/08/13 02:25:13;;;;;;;20.82;12.05;;;;;;;18.91;69.60;100901.56;1707502;82;21015;-74
2022/08/13 02:27:40;;;;;;;14.30;11.22;;;;;;;18.92;69.59;100891.59;1711192;82;22309;-74
2022/08/13 02:30:09;;;;;;;19.27;12.10;;;;;;;18.91;69.62;100889.92;1705073;81;21129;-74
2022/08/13 02:32:40;;;;;;;13.13;11.65;;;;;;;18.95;69.63;100884.41;1726398;81;21015;-77
2022/08/13 02:35:08;;;;;;;13.80;11.50;;;;;;;18.96;69.62;100879.31;1712806;82;21062;-77
2022/08/13 02:37:34;;;;;;;15.58;12.68;;;;;;;18.94;69.62;100868.70;1724682;82;21055;-77
2022/08/13 02:40:02;;;;;;;15.90;12.10;;;;;;;18.95;69.64;100862.27;1725715;82;21030;-77
2022/08/13 02:42:31;;;;;;;13.08;11.53;;;;;;;19.01;69.65;100865.14;1712459;82;21011;-77
2022/08/13 02:44:57;;;;;;;14.28;11.25;;;;;;;19.06;69.66;100866.17;1690241;82;21003;-77
2022/08/13 02:47:23;;;;;;;17.40;11.40;;;;;;;19.04;69.67;100864.70;1701202;82;21116;-77
2022/08/13 02:49:51;;;;;;;13.60;11.85;;;;;;;19.02;69.74;100868.16;1715279;82;21046;-77
2022/08/13 02:52:19;;;;;;;15.83;11.33;;;;;;;19.01;69.76;100857.86;1706272;82;21029;-77
2022/08/13 02:54:48;;;;;;;17.23;13.03;;;;;;;19.00;69.77;100856.19;1683037;82;21117;-77
2022/08/13 02:57:14;;;;;;;14.90;13.20;;;;;;;19.00;69.81;100850.78;1703005;82;21019;-77
2022/08/13 02:59:41;;;;;;;20.55;12.28;;;;;;;19.01;69.82;100856.51;1712693;82;21307;-77
2022/08/13 03:02:07;;;;;;;29.85;11.10;;;;;;;19.02;69.87;100852.77;1721344;82;21089;-77
2022/08/13 03:04:34;;;;;;;17.45;11.95;;;;;;;19.00;69.88;100848.08;1738294;82;21720;-76
2022/08/13 03:07:00;;;;;;;55.10;12.28;;;;;;;18.98;69.96;100849.34;1740983;82;20992;-76
2022/08/13 03:09:26;;;;;;;32.80;11.68;;;;;;;18.98;69.97;100849.34;1712968;82;21068;-76
2022/08/13 03:11:52;;;;;;;15.30;10.10;;;;;;;18.96;70.05;100842.27;1719056;82;21074;-76
2022/08/13 03:14:19;;;;;;;15.88;11.83;;;;;;;18.91;70.10;100841.27;1721057;81;21009;-77
2022/08/13 03:16:45;;;;;;;13.62;10.63;;;;;;;18.89;70.20;100837.96;1726181;82;21296;-77
2022/08/13 03:19:11;;;;;;;14.63;11.57;;;;;;;18.86;70.26;100849.17;1721053;82;21046;-77
2022/08/13 03:21:41;;;;;;;17.73;12.33;;;;;;;18.80;70.33;100845.45;1710875;82;22199;-74
2022/08/13 03:24:11;;;;;;;16.97;11.93;;;;;;;18.80;70.45;100847.33;1675314;83;21483;-74
2022/08/13 03:26:38;;;;;;;20.23;11.88;;;;;;;18.84;70.52;100841.81;1687198;81;21125;-74
2022/08/13 03:29:04;;;;;;;18.40;12.70;;;;;;;18.90;70.55;100846.36;1708652;82;21160;-75
2022/08/13 03:31:30;;;;;;;15.28;11.95;;;;;;;18.94;70.57;100846.23;1699566;82;21496;-74
2022/08/13 03:33:58;;;;;;;15.85;11.73;;;;;;;18.97;70.60;100845.81;1709410;81;21667;-75
2022/08/13 03:36:27;;;;;;;222.10;19.87;;;;;;;18.96;70.63;100846.87;1726254;82;21050;-75
2022/08/13 03:38:53;;;;;;;34.95;12.23;;;;;;;18.96;70.71;100848.23;1710956;82;21188;-75
2022/08/13 03:41:19;;;;;;;18.23;11.22;;;;;;;18.92;70.77;100851.05;1729063;82;21142;-74
2022/08/13 03:43:47;;;;;;;18.70;12.18;;;;;;;18.91;70.84;100850.21;1681282;83;21097;-75
2022/08/13 03:46:20;;;;;;;14.45;10.75;;;;;;;18.91;70.85;100846.67;1709969;82;21025;-75
2022/08/13 03:48:47;;;;;;;13.55;10.45;;;;;;;18.91;70.94;100850.21;1727142;81;21070;-75
2022/08/13 03:51:14;;;;;;;11.60;10.40;;;;;;;18.92;71.00;100845.64;1735216;82;21030;-75
2022/08/13 03:53:40;;;;;;;20.27;10.78;;;;;;;18.94;71.03;100846.23;1702127;82;21855;-74
2022/08/13 03:56:07;;;;;;;23.18;11.45;;;;;;;18.94;71.01;100851.64;1713686;81;21110;-74
2022/08/13 03:58:33;;;;;;;17.23;11.25;;;;;;;18.90;71.07;100846.36;1723972;81;21023;-74
2022/08/13 04:01:01;;;;;;;16.10;11.15;;;;;;;18.87;71.11;100850.84;1720890;81;20995;-74
2022/08/13 04:03:30;;;;;;;15.10;11.53;;;;;;;18.89;71.18;100845.52;1713264;81;21673;-74
2022/08/13 04:06:00;;;;;;;15.08;10.63;;;;;;;18.91;71.24;100842.10;1684732;82;21024;-75
2022/08/13 17:09:56;;;;;;;8.45;6.95;;;;;;;24.92;57.93;100551.17;1679531;83;21498;-76
2022/08/13 17:12:22;;;;;;;7.40;6.70;;;;;;;24.88;58.04;100552.77;1671187;83;21040;-76
2022/08/13 17:14:48;;;;;;;11.05;7.60;;;;;;;24.84;58.09;100554.36;1677013;84;21020;-76
2022/08/13 17:17:14;;;;;;;9.98;6.55;;;;;;;24.83;58.14;100555.47;1663362;84;21826;-76
2022/08/13 17:19:41;;;;;;;16.45;6.62;;;;;;;24.79;58.22;100563.32;1660737;84;20945;-76
2022/08/13 17:22:09;;;;;;;9.40;7.67;;;;;;;24.76;58.30;100559.75;1669361;84;21002;-76
2022/08/13 17:24:35;;;;;;;9.00;7.00;;;;;;;24.72;58.35;100559.15;1675207;84;21082;-76
2022/08/13 17:27:04;;;;;;;9.28;7.10;;;;;;;24.68;58.46;100564.84;1646611;84;21023;-76
2022/08/13 17:29:31;;;;;;;8.93;7.47;;;;;;;24.63;58.54;100553.90;1670410;84;22591;-76
2022/08/13 17:31:57;;;;;;;9.10;6.58;;;;;;;24.59;58.65;100559.58;1647144;84;21386;-76
2022/08/13 17:34:25;;;;;;;8.80;7.00;;;;;;;24.55;58.73;100558.45;1647276;83;21062;-75
2022/08/13 17:36:54;;;;;;;8.93;7.42;;;;;;;24.49;58.84;100556.19;1682433;83;21196;-75
2022/08/13 17:39:20;;;;;;;9.20;6.72;;;;;;;24.45;58.93;100555.09;1680126;83;20987;-76
2022/08/13 17:41:47;;;;;;;8.05;7.30;;;;;;;24.40;59.05;100550.09;1679867;83;21997;-76
2022/08/13 17:44:17;;;;;;;8.60;7.25;;;;;;;24.35;59.13;100548.96;1679399;82;21055;-76
2022/08/13 17:46:45;;;;;;;7.58;6.65;;;;;;;24.32;59.22;100559.02;1679005;83;21029;-76
2022/08/13 17:49:17;;;;;;;11.25;7.17;;;;;;;24.28;59.31;100555.69;1694085;82;21019;-75
2022/08/13 17:51:45;;;;;;;12.78;6.97;;;;;;;24.21;59.38;100555.06;1684882;81;20913;-76
2022/08/13 17:54:14;;;;;;;11.88;7.05;;;;;;;24.15;59.50;100548.75;1664023;82;21854;-76
2022/08/13 17:56:42;;;;;;;8.95;7.92;;;;;;;24.10;59.57;100543.19;1673458;83;21447;-76
2022/08/13 17:59:08;;;;;;;12.40;8.80;;;;;;;24.04;59.69;100552.40;1682906;83;21356;-77
2022/08/13 18:01:35;;;;;;;10.72;8.83;;;;;;;23.95;59.88;100550.38;1674299;82;21108;-77
2022/08/13 18:04:07;;;;;;;12.50;8.33;;;;;;;23.87;60.10;100557.09;1698641;82;21086;-76
2022/08/13 18:06:35;;;;;;;19.20;8.80;;;;;;;23.76;60.35;100547.97;1699028;82;21798;-76
2022/08/13 18:09:07;;;;;;;11.73;9.38;;;;;;;23.69;60.62;100546.50;1679741;83;21518;-75
2022/08/13 18:11:34;;;;;;;14.58;9.10;;;;;;;23.61;60.85;100551.05;1690272;82;21069;-75
2022/08/13 18:14:00;;;;;;;14.15;7.97;;;;;;;23.50;61.13;100551.97;1698857;82;21032;-76
2022/08/13 18:16:27;;;;;;;14.35;9.35;;;;;;;23.32;61.41;100557.95;1689423;82;21105;-76
2022/08/13 18:18:53;;;;;;;21.33;12.93;;;;;;;23.18;61.75;100560.73;1685866;83;21943;-76
2022/08/13 18:21:19;;;;;;;14.68;11.73;;;;;;;23.05;62.05;100569.73;1683610;83;21666;-76
2022/08/13 18:23:45;;;;;;;13.03;10.30;;;;;;;22.92;62.37;100576.34;1691307;82;21045;-76
2022/08/13 18:26:11;;;;;;;23.10;12.60;;;;;;;22.84;62.65;100581.64;1701845;82;20984;-75
2022/08/13 18:28:37;;;;;;;23.10;14.60;;;;;;;22.79;62.91;100584.83;1686029;82;21019;-76
2022/08/13 18:31:03;;;;;;;20.00;16.50;;;;;;;22.76;63.15;100585.33;1690881;83;21613;-75
2022/08/13 18:33:29;;;;;;;35.45;16.42;;;;;;;22.69;63.34;100590.09;1682729;83;21111;-75
2022/08/13 18:35:56;;;;;;;26.45;18.30;;;;;;;22.60;63.62;100585.53;1693331;82;21055;-75
2022/08/13 18:38:22;;;;;;;27.20;19.02;;;;;;;22.52;63.89;100585.13;1689749;83;21090;-75
2022/08/13 18:40:49;;;;;;;21.73;15.40;;;;;;;22.46;64.10;100584.72;1705007;82;21004;-76
2022/08/13 18:43:19;;;;;;;21.65;15.25;;;;;;;22.37;64.28;100583.77;1672468;82;22185;-75
2022/08/13 18:45:45;;;;;;;25.35;14.90;;;;;;;22.23;64.49;100591.91;1699212;82;21499;-76
2022/08/13 18:48:11;;;;;;;17.15;14.00;;;;;;;22.07;64.70;100587.22;1697869;82;21054;-75
2022/08/13 18:50:37;;;;;;;19.02;13.75;;;;;;;21.96;64.96;100588.06;1681820;83;20966;-75
2022/08/13 18:53:03;;;;;;;14.80;12.78;;;;;;;21.88;65.24;100592.50;1701788;82;21520;-75
2022/08/13 18:55:29;;;;;;;14.28;12.78;;;;;;;21.79;65.49;100583.88;1680635;83;21584;-75
2022/08/13 18:57:55;;;;;;;23.42;14.15;;;;;;;21.74;65.73;100588.39;1695878;83;21052;-75
2022/08/13 19:00:22;;;;;;;19.70;14.38;;;;;;;21.64;65.98;100584.90;1689560;82;20998;-75
2022/08/13 19:02:49;;;;;;;23.62;16.17;;;;;;;21.58;66.23;100583.67;1669813;83;21075;-75
2022/08/13 19:05:18;;;;;;;25.25;16.60;;;;;;;21.51;66.43;100591.94;1694510;82;21125;-75
2022/08/13 19:07:46;;;;;;;29.55;18.42;;;;;;;21.39;66.67;100593.29;1680522;83;21510;-75
2022/08/13 19:10:17;;;;;;;23.55;16.97;;;;;;;21.33;66.93;100594.23;1676832;83;21016;-75
2022/08/13 19:12:46;;;;;;;23.52;15.85;;;;;;;21.29;67.14;100588.98;1654605;84;21636;-74
2022/08/13 19:15:13;;;;;;;22.10;19.23;;;;;;;21.23;67.37;100595.36;1690908;83;21036;-74
2022/08/13 19:17:42;;;;;;;24.10;17.85;;;;;;;21.15;67.57;100595.69;1693374;82;21094;-74
2022/08/13 19:20:12;;;;;;;26.30;18.60;;;;;;;21.05;67.78;100600.01;1675852;82;21106;-74
2022/08/13 19:22:49;;;;;;;25.35;18.98;;;;;;;20.98;68.03;100595.22;1697546;82;21059;-74
2022/08/13 19:25:16;;;;;;;26.57;18.95;;;;;;;20.90;68.30;100603.16;1684815;82;21108;-75
2022/08/13 19:27:42;;;;;;;18.57;15.90;;;;;;;20.85;68.56;100598.98;1681347;83;21139;-75
2022/08/13 19:30:10;;;;;;;18.70;15.20;;;;;;;20.80;68.76;100604.25;1674899;83;21047;-75
2022/08/13 19:32:37;;;;;;;19.17;14.28;;;;;;;20.76;68.94;100609.84;1695128;83;21866;-75
2022/08/13 19:35:05;;;;;;;17.67;13.53;;;;;;;20.78;69.13;100609.09;1679349;83;21053;-75
2022/08/13 19:37:33;;;;;;;19.35;13.78;;;;;;;20.78;69.28;100611.28;1694129;82;21438;-75
2022/08/13 19:40:02;;;;;;;20.55;16.62;;;;;;;20.76;69.45;100607.95;1685457;82;21143;-75
2022/08/13 19:42:28;;;;;;;23.42;18.45;;;;;;;20.83;69.60;100609.21;1699032;82;21516;-75
2022/08/13 19:44:55;;;;;;;17.60;14.68;;;;;;;20.84;69.72;100605.45;1670135;83;21056;-75
2022/08/13 19:47:21;;;;;;;15.00;13.43;;;;;;;20.82;69.87;100608.41;1681683;82;21076;-75
2022/08/13 19:49:48;;;;;;;15.85;13.62;;;;;;;20.81;70.04;100607.27;1672971;84;21665;-75
2022/08/13 19:52:18;;;;;;;17.32;12.70;;;;;;;20.82;70.18;100608.94;1646012;85;21073;-75
2022/08/13 19:54:44;;;;;;;20.20;12.47;;;;;;;20.80;70.27;100598.83;1650242;84;21083;-75
2022/08/13 19:57:12;;;;;;;16.20;13.13;;;;;;;20.81;70.37;100607.27;1647973;85;21174;-75
2022/08/13 19:59:39;;;;;;;14.87;12.75;;;;;;;20.81;70.49;100600.50;1643052;86;21131;-75
2022/08/13 20:02:05;;;;;;;21.12;15.68;;;;;;;20.88;70.58;100603.94;1649576;86;21034;-75
2022/08/13 20:04:32;;;;;;;25.35;16.07;;;;;;;20.94;70.64;100602.99;1651306;85;21039;-75
2022/08/13 20:06:58;;;;;;;15.43;12.45;;;;;;;20.98;70.71;100597.41;1670528;84;21036;-75
2022/08/13 20:09:24;;;;;;;14.63;13.08;;;;;;;20.94;70.76;100597.57;1642666;85;21086;-75
2022/08/13 20:11:50;;;;;;;15.43;13.22;;;;;;;20.92;70.87;100591.05;1616609;85;21030;-75
2022/08/13 20:14:17;;;;;;;15.80;13.45;;;;;;;20.93;70.98;100584.53;1646835;85;21108;-75
2022/08/13 20:16:46;;;;;;;15.75;13.28;;;;;;;20.96;71.05;100583.27;1624879;85;23061;-75
2022/08/13 20:19:11;;;;;;;17.60;12.65;;;;;;;20.94;71.09;100581.30;1663346;84;21120;-75
2022/08/13 20:21:37;;;;;;;16.00;13.20;;;;;;;20.92;71.18;100578.84;1637387;85;21215;-75
2022/08/13 20:24:03;;;;;;;16.70;14.47;;;;;;;20.92;71.26;100581.55;1650594;84;21067;-75
2022/08/13 20:26:30;;;;;;;21.68;16.70;;;;;;;20.90;71.35;100576.05;1657558;84;21080;-75
2022/08/13 20:28:57;;;;;;;20.35;18.10;;;;;;;20.85;71.38;100582.71;1669448;83;21083;-75
2022/08/13 20:31:23;;;;;;;24.92;18.25;;;;;;;20.81;71.52;100589.66;1656448;83;21571;-75
2022/08/13 20:33:50;;;;;;;20.60;16.25;;;;;;;20.81;71.60;100586.41;1664543;83;22168;-75
2022/08/13 20:36:16;;;;;;;18.62;14.47;;;;;;;20.79;71.67;100584.45;1690540;83;21086;-76
2022/08/13 20:38:44;;;;;;;21.70;15.20;;;;;;;20.82;71.81;100588.60;1688818;82;20993;-75
2022/08/13 20:41:10;;;;;;;15.72;12.73;;;;;;;20.88;71.89;100583.59;1689662;83;20995;-75
2022/08/13 20:43:36;;;;;;;16.97;13.78;;;;;;;20.93;71.95;100585.89;1699280;82;21082;-75
2022/08/13 20:46:02;;;;;;;20.43;14.38;;;;;;;20.99;72.00;100581.44;1698841;82;21172;-75
2022/08/13 20:48:28;;;;;;;16.02;13.10;;;;;;;21.01;72.05;100575.77;1692038;83;21062;-75
2022/08/13 20:50:55;;;;;;;18.12;15.35;;;;;;;21.00;72.07;100576.84;1695367;82;21079;-75
2022/08/13 20:53:21;;;;;;;23.22;17.40;;;;;;;20.94;72.11;100574.00;1702109;82;21063;-75
2022/08/13 20:55:47;;;;;;;23.22;16.12;;;;;;;20.88;72.15;100570.88;1664663;83;21095;-75
2022/08/13 20:58:13;;;;;;;18.30;13.85;;;;;;;20.81;72.22;100572.86;1689863;83;21180;-75
2022/08/13 21:00:40;;;;;;;16.48;13.22;;;;;;;20.75;72.29;100578.39;1700501;83;21057;-75
2022/08/13 21:03:06;;;;;;;15.38;13.45;;;;;;;20.73;72.44;100572.35;1689889;83;21555;-75
2022/08/13 21:05:35;;;;;;;14.63;13.05;;;;;;;20.74;72.52;100572.14;1687848;82;21085;-75
2022/08/13 21:08:01;;;;;;;16.40;14.70;;;;;;;20.69;72.52;100575.27;1696556;82;21067;-75
2022/08/13 21:10:27;;;;;;;16.82;14.05;;;;;;;20.61;72.62;100572.87;1700631;82;21162;-75
2022/08/13 21:12:57;;;;;;;18.40;14.68;;;;;;;20.58;72.73;100561.97;1683244;83;21084;-75
2022/08/13 21:15:24;;;;;;;15.68;14.03;;;;;;;20.58;72.76;100561.14;1704320;82;20988;-75
2022/08/13 21:17:53;;;;;;;20.75;15.65;;;;;;;20.50;72.84;100565.52;1697176;82;21067;-75
2022/08/13 21:20:20;;;;;;;17.55;14.78;;;;;;;20.40;72.96;100557.95;1664587;82;21064;-75
2022/08/13 21:22:46;;;;;;;15.58;13.55;;;;;;;20.37;73.07;100560.58;1641092;84;21571;-75
2022/08/13 21:25:12;;;;;;;17.77;15.90;;;;;;;20.35;73.13;100566.77;1638472;83;21070;-74
2022/08/13 21:27:39;;;;;;;21.93;18.10;;;;;;;20.31;73.19;100566.92;1662858;83;21179;-74
2022/08/13 21:30:07;;;;;;;23.47;18.60;;;;;;;20.27;73.24;100565.72;1684589;83;21095;-73
2022/08/13 21:32:35;;;;;;;25.05;17.02;;;;;;;20.24;73.33;100562.09;1699748;82;21176;-74
2022/08/13 21:35:01;;;;;;;20.12;17.48;;;;;;;20.18;73.40;100559.47;1681174;82;21591;-74
2022/08/13 21:37:27;;;;;;;20.75;17.32;;;;;;;20.12;73.50;100553.10;1685233;83;21027;-74
2022/08/13 21:39:53;;;;;;;24.32;16.25;;;;;;;20.11;73.60;100559.56;1650815;83;20963;-75
2022/08/13 21:42:19;;;;;;;23.35;19.75;;;;;;;20.02;73.63;100549.28;1665101;84;21474;-74
2022/08/13 21:44:45;;;;;;;21.68;19.30;;;;;;;19.93;73.77;100556.88;1657249;85;21103;-74
2022/08/13 21:47:11;;;;;;;22.37;17.98;;;;;;;19.90;73.89;100551.39;1654445;84;21742;-74
2022/08/13 21:49:37;;;;;;;28.45;16.97;;;;;;;19.91;73.95;100554.94;1691167;83;21016;-74
2022/08/13 21:52:05;;;;;;;20.15;17.77;;;;;;;19.82;74.00;100558.45;1682779;83;21507;-74
2022/08/13 21:54:31;;;;;;;24.00;17.70;;;;;;;19.72;74.12;100560.04;1681364;82;21583;-74
2022/08/13 21:56:57;;;;;;;21.82;16.30;;;;;;;19.69;74.24;100556.44;1713869;82;21118;-74
2022/08/13 21:59:23;;;;;;;20.35;18.23;;;;;;;19.61;74.30;100560.78;1675283;83;22046;-74
2022/08/13 22:01:50;;;;;;;17.98;15.83;;;;;;;19.50;74.45;100556.94;1683197;82;21058;-75
2022/08/13 22:04:16;;;;;;;19.20;16.12;;;;;;;19.46;74.58;100556.28;1685533;82;21070;-74
2022/08/13 22:06:42;;;;;;;22.40;16.67;;;;;;;19.47;74.68;100559.27;1699943;83;21079;-74
2022/08/13 22:09:09;;;;;;;20.62;17.95;;;;;;;19.48;74.76;100554.17;1701686;82;21026;-74
2022/08/13 22:11:35;;;;;;;20.17;17.87;;;;;;;19.46;74.83;100554.93;1649081;83;21691;-74
2022/08/13 22:14:01;;;;;;;18.65;16.70;;;;;;;19.34;74.89;100552.92;1699595;82;21099;-74
2022/08/13 22:16:27;;;;;;;21.27;17.48;;;;;;;19.27;75.00;100547.27;1684706;82;21162;-74
2022/08/13 22:18:53;;;;;;;17.57;15.78;;;;;;;19.15;75.09;100548.52;1681661;82;20925;-74
2022/08/13 22:21:19;;;;;;;22.95;17.42;;;;;;;19.08;75.22;100545.05;1648940;84;21095;-73
2022/08/13 22:23:45;;;;;;;25.23;19.32;;;;;;;19.08;75.36;100539.64;1644262;84;21146;-73
2022/08/13 22:26:11;;;;;;;23.67;17.90;;;;;;;19.02;75.42;100533.78;1676180;83;20939;-74
2022/08/13 22:31:24;;;;;;;25.05;18.50;;;;;;;19.03;75.59;100538.14;1678038;82;21079;-74
2022/08/13 22:33:50;;;;;;;22.70;18.45;;;;;;;18.89;75.66;100533.91;1681907;83;21097;-74
2022/08/13 22:36:16;;;;;;;23.95;19.25;;;;;;;18.80;75.78;100533.33;1686113;83;21226;-74
2022/08/13 22:38:42;;;;;;;22.73;19.55;;;;;;;18.75;75.89;100540.45;1681273;83;21514;-74
2022/08/13 22:41:08;;;;;;;22.87;20.50;;;;;;;18.69;75.99;100540.80;1680821;83;21849;-74
2022/08/13 22:43:35;;;;;;;26.05;20.08;;;;;;;18.68;76.16;100535.63;1682860;82;21669;-73
2022/08/13 22:46:02;;;;;;;24.70;20.75;;;;;;;18.68;76.23;100536.43;1674377;83;21082;-74
2022/08/13 22:48:28;;;;;;;25.00;22.27;;;;;;;18.66;76.33;100533.13;1693514;83;21820;-74
2022/08/13 22:50:55;;;;;;;25.15;22.45;;;;;;;18.68;76.41;100538.33;1686729;82;21002;-74
2022/08/13 22:53:22;;;;;;;25.17;20.92;;;;;;;18.66;76.47;100533.66;1657707;82;21248;-74
2022/08/13 22:55:49;;;;;;;23.90;21.27;;;;;;;18.62;76.53;100531.08;1662520;84;21102;-74
2022/08/13 22:58:15;;;;;;;26.00;22.77;;;;;;;18.58;76.65;100531.23;1649853;84;21087;-74
2022/08/13 23:00:42;;;;;;;26.07;22.25;;;;;;;18.54;76.71;100532.72;1655500;84;21150;-74
2022/08/13 23:03:20;;;;;;;29.98;23.20;;;;;;;18.50;76.83;100530.11;1637947;83;21032;-74
2022/08/13 23:05:51;;;;;;;28.50;23.57;;;;;;;18.48;76.94;100524.91;1684588;83;21539;-73
2022/08/13 23:08:18;;;;;;;26.55;23.02;;;;;;;18.50;77.04;100520.14;1692785;83;21076;-73
2022/08/13 23:10:46;;;;;;;27.00;23.80;;;;;;;18.47;77.12;100516.53;1681726;83;21146;-74
2022/08/13 23:13:21;;;;;;;27.93;24.00;;;;;;;18.45;77.19;100518.08;1681146;83;21268;-74
2022/08/13 23:15:47;;;;;;;30.05;25.17;;;;;;;18.45;77.26;100519.95;1670519;84;21076;-75
2022/08/13 23:18:14;;;;;;;30.55;25.27;;;;;;;18.44;77.34;100512.37;1690813;83;21063;-74
2022/08/13 23:20:41;;;;;;;35.88;27.00;;;;;;;18.42;77.40;100511.77;1671369;83;21023;-74
2022/08/13 23:23:15;;;;;;;34.35;25.88;;;;;;;18.42;77.50;100513.12;1637852;83;21213;-75
2022/08/13 23:25:43;;;;;;;28.65;24.47;;;;;;;18.39;77.57;100508.16;1672905;84;21820;-74
2022/08/13 23:28:10;;;;;;;28.55;25.05;;;;;;;18.38;77.68;100499.75;1651395;83;21070;-74
2022/08/13 23:30:36;;;;;;;27.30;23.52;;;;;;;18.38;77.75;100505.15;1652636;84;21028;-74
2022/08/13 23:33:07;;;;;;;31.17;25.43;;;;;;;18.33;77.78;100499.55;1655514;84;21550;-73
2022/08/13 23:35:34;;;;;;;28.05;24.95;;;;;;;18.31;77.88;100498.96;1632650;84;21062;-73
2022/08/13 23:38:00;;;;;;;32.48;27.07;;;;;;;18.26;77.93;100493.38;1658081;84;21202;-74
2022/08/13 23:40:26;;;;;;;30.35;26.05;;;;;;;18.21;78.02;100492.38;1644440;84;21290;-74
2022/08/13 23:42:52;;;;;;;32.00;27.27;;;;;;;18.14;78.09;100496.48;1641871;84;21527;-74
2022/08/13 23:45:20;;;;;;;25.90;23.10;;;;;;;18.07;78.15;100498.39;1665100;83;21968;-74
2022/08/13 23:47:46;;;;;;;29.27;24.67;;;;;;;17.99;78.25;100495.92;1664398;84;21091;-73
2022/08/13 23:50:12;;;;;;;27.58;24.18;;;;;;;18.00;78.39;100497.59;1663401;84;21808;-74
2022/08/13 23:52:39;;;;;;;27.58;24.57;;;;;;;18.01;78.44;100496.56;1659982;84;21663;-74
2022/08/13 23:55:06;;;;;;;27.95;24.12;;;;;;;18.00;78.51;100489.50;1632733;84;21614;-74
2022/08/13 23:57:33;;;;;;;31.80;24.92;;;;;;;17.98;78.57;100488.87;1649867;85;21176;-74
2022/08/13 23:59:59;;;;;;;29.20;24.10;;;;;;;17.97;78.66;100489.94;1651883;86;21133;-74
